sensor_id;sensor_type;location;lat;lon;timestamp;P1;durP1;ratioP1;P2;durP2;ratioP2
9716;SDS011;4897;43.570;27.832;2023-04-24T00:00:58;10.77;;;5.60;;
9716;SDS011;4897;43.570;27.832;2023-04-24T00:03:26;10.15;;;5.20;;
9716;SDS011;4897;43.570;27.832;2023-04-24T00:05:53;10.15;;;5.20;;
9716;SDS011;4897;43.570;27.832;2023-04-24T00:08:25;8.68;;;4.45;;
9716;SDS011;4897;43.570;27.832;2023-04-24T00:10:51;13.43;;;4.90;;
9716;SDS011;4897;43.570;27.832;2023-04-24T00:13:19;12.73;;;5.22;;
9716;SDS011;4897;43.570;27.832;2023-04-24T00:15:46;14.32;;;5.78;;
9716;SDS011;4897;43.570;27.832;2023-04-24T00:18:13;12.43;;;6.72;;
9716;SDS011;4897;43.570;27.832;2023-04-24T00:20:39;11.35;;;5.60;;
9716;SDS011;4897;43.570;27.832;2023-04-24T00:23:06;15.75;;;5.72;;
9716;SDS011;4897;43.570;27.832;2023-04-24T00:25:34;8.50;;;5.32;;
9716;SDS011;4897;43.570;27.832;2023-04-24T00:28:00;12.10;;;6.47;;
9716;SDS011;4897;43.570;27.832;2023-04-24T00:30:28;13.95;;;6.38;;
9716;SDS011;4897;43.570;27.832;2023-04-24T00:32:55;15.18;;;7.10;;
9716;SDS011;4897;43.570;27.832;2023-04-24T00:35:22;15.38;;;6.65;;
9716;SDS011;4897;43.570;27.832;2023-04-24T00:37:48;15.55;;;6.80;;
9716;SDS011;4897;43.570;27.832;2023-04-24T00:40:15;16.08;;;7.45;;
9716;SDS011;4897;43.570;27.832;2023-04-24T00:42:44;13.70;;;6.50;;
9716;SDS011;4897;43.570;27.832;2023-04-24T00:45:12;24.00;;;7.47;;
9716;SDS011;4897;43.570;27.832;2023-04-24T00:47:40;18.80;;;7.10;;
9716;SDS011;4897;43.570;27.832;2023-04-24T00:50:08;30.02;;;8.48;;
9716;SDS011;4897;43.570;27.832;2023-04-24T00:52:34;14.57;;;7.82;;
9716;SDS011;4897;43.570;27.832;2023-04-24T00:55:02;15.23;;;7.55;;
9716;SDS011;4897;43.570;27.832;2023-04-24T00:57:29;14.73;;;6.72;;
9716;SDS011;4897;43.570;27.832;2023-04-24T00:59:56;13.60;;;6.75;;
9716;SDS011;4897;43.570;27.832;2023-04-24T01:02:22;47.17;;;8.52;;
9716;SDS011;4897;43.570;27.832;2023-04-24T01:04:50;32.42;;;8.18;;
9716;SDS011;4897;43.570;27.832;2023-04-24T01:07:18;33.25;;;8.38;;
9716;SDS011;4897;43.570;27.832;2023-04-24T01:09:46;22.50;;;7.28;;
9716;SDS011;4897;43.570;27.832;2023-04-24T01:12:17;33.65;;;8.00;;
9716;SDS011;4897;43.570;27.832;2023-04-24T01:14:44;28.02;;;8.10;;
9716;SDS011;4897;43.570;27.832;2023-04-24T01:17:10;29.40;;;6.95;;
9716;SDS011;4897;43.570;27.832;2023-04-24T01:19:37;21.48;;;6.88;;
9716;SDS011;4897;43.570;27.832;2023-04-24T01:22:08;23.02;;;6.43;;
9716;SDS011;4897;43.570;27.832;2023-04-24T01:24:35;12.75;;;5.50;;
9716;SDS011;4897;43.570;27.832;2023-04-24T01:27:02;17.25;;;5.32;;
9716;SDS011;4897;43.570;27.832;2023-04-24T01:29:29;18.58;;;6.25;;
9716;SDS011;4897;43.570;27.832;2023-04-24T01:31:56;16.67;;;6.45;;
9716;SDS011;4897;43.570;27.832;2023-04-24T01:34:23;14.73;;;5.60;;
9716;SDS011;4897;43.570;27.832;2023-04-24T01:36:50;11.63;;;6.30;;
9716;SDS011;4897;43.570;27.832;2023-04-24T01:39:18;11.13;;;6.18;;
9716;SDS011;4897;43.570;27.832;2023-04-24T01:41:45;13.02;;;7.00;;
9716;SDS011;4897;43.570;27.832;2023-04-24T01:44:12;15.25;;;6.82;;
9716;SDS011;4897;43.570;27.832;2023-04-24T01:46:39;13.80;;;7.30;;
9716;SDS011;4897;43.570;27.832;2023-04-24T01:49:05;12.35;;;6.97;;
9716;SDS011;4897;43.570;27.832;2023-04-24T01:51:34;14.80;;;7.43;;
9716;SDS011;4897;43.570;27.832;2023-04-24T01:54:01;19.77;;;7.70;;
9716;SDS011;4897;43.570;27.832;2023-04-24T01:56:29;14.93;;;7.78;;
9716;SDS011;4897;43.570;27.832;2023-04-24T01:58:56;14.45;;;7.55;;
9716;SDS011;4897;43.570;27.832;2023-04-24T02:01:23;13.70;;;6.82;;
9716;SDS011;4897;43.570;27.832;2023-04-24T02:03:51;17.63;;;7.63;;
9716;SDS011;4897;43.570;27.832;2023-04-24T02:06:17;14.27;;;7.28;;
9716;SDS011;4897;43.570;27.832;2023-04-24T02:08:44;16.48;;;7.47;;
9716;SDS011;4897;43.570;27.832;2023-04-24T02:11:10;11.85;;;7.03;;
9716;SDS011;4897;43.570;27.832;2023-04-24T02:13:38;14.43;;;6.80;;
9716;SDS011;4897;43.570;27.832;2023-04-24T02:16:05;12.85;;;6.10;;
9716;SDS011;4897;43.570;27.832;2023-04-24T02:18:32;11.48;;;5.75;;
9716;SDS011;4897;43.570;27.832;2023-04-24T02:20:58;12.15;;;6.03;;
9716;SDS011;4897;43.570;27.832;2023-04-24T02:23:25;11.30;;;5.70;;
9716;SDS011;4897;43.570;27.832;2023-04-24T02:25:52;12.43;;;5.57;;
9716;SDS011;4897;43.570;27.832;2023-04-24T02:28:19;16.27;;;5.80;;
9716;SDS011;4897;43.570;27.832;2023-04-24T02:30:47;9.90;;;4.80;;
9716;SDS011;4897;43.570;27.832;2023-04-24T02:33:14;13.30;;;5.55;;
9716;SDS011;4897;43.570;27.832;2023-04-24T02:35:40;10.57;;;6.13;;
9716;SDS011;4897;43.570;27.832;2023-04-24T02:38:07;10.60;;;5.97;;
9716;SDS011;4897;43.570;27.832;2023-04-24T02:40:34;13.38;;;5.60;;
9716;SDS011;4897;43.570;27.832;2023-04-24T02:43:01;15.90;;;4.90;;
9716;SDS011;4897;43.570;27.832;2023-04-24T02:45:28;9.82;;;4.82;;
9716;SDS011;4897;43.570;27.832;2023-04-24T02:47:56;7.43;;;5.00;;
9716;SDS011;4897;43.570;27.832;2023-04-24T02:50:22;8.55;;;4.70;;
9716;SDS011;4897;43.570;27.832;2023-04-24T02:52:49;11.45;;;5.20;;
9716;SDS011;4897;43.570;27.832;2023-04-24T02:55:16;6.97;;;4.55;;
9716;SDS011;4897;43.570;27.832;2023-04-24T02:57:42;7.90;;;4.53;;
9716;SDS011;4897;43.570;27.832;2023-04-24T03:00:09;7.75;;;4.70;;
9716;SDS011;4897;43.570;27.832;2023-04-24T03:02:36;10.15;;;4.75;;
9716;SDS011;4897;43.570;27.832;2023-04-24T03:05:06;11.55;;;5.32;;
9716;SDS011;4897;43.570;27.832;2023-04-24T03:07:35;10.90;;;4.97;;
9716;SDS011;4897;43.570;27.832;2023-04-24T03:10:05;9.02;;;4.70;;
9716;SDS011;4897;43.570;27.832;2023-04-24T03:12:32;7.95;;;4.32;;
9716;SDS011;4897;43.570;27.832;2023-04-24T03:14:58;8.43;;;4.90;;
9716;SDS011;4897;43.570;27.832;2023-04-24T03:17:25;13.57;;;5.28;;
9716;SDS011;4897;43.570;27.832;2023-04-24T03:19:52;9.88;;;4.50;;
9716;SDS011;4897;43.570;27.832;2023-04-24T03:22:20;8.77;;;4.80;;
9716;SDS011;4897;43.570;27.832;2023-04-24T03:24:46;12.20;;;5.10;;
9716;SDS011;4897;43.570;27.832;2023-04-24T03:27:13;7.45;;;4.63;;
9716;SDS011;4897;43.570;27.832;2023-04-24T03:29:40;9.38;;;4.63;;
9716;SDS011;4897;43.570;27.832;2023-04-24T03:32:06;14.07;;;5.55;;
9716;SDS011;4897;43.570;27.832;2023-04-24T03:34:33;8.90;;;5.18;;
9716;SDS011;4897;43.570;27.832;2023-04-24T03:37:00;10.93;;;4.97;;
9716;SDS011;4897;43.570;27.832;2023-04-24T03:39:28;9.98;;;5.28;;
9716;SDS011;4897;43.570;27.832;2023-04-24T03:41:54;11.65;;;5.18;;
9716;SDS011;4897;43.570;27.832;2023-04-24T03:44:21;16.13;;;5.65;;
9716;SDS011;4897;43.570;27.832;2023-04-24T03:46:48;15.98;;;5.70;;
9716;SDS011;4897;43.570;27.832;2023-04-24T03:49:14;17.45;;;4.88;;
9716;SDS011;4897;43.570;27.832;2023-04-24T03:51:41;15.18;;;5.32;;
9716;SDS011;4897;43.570;27.832;2023-04-24T03:54:08;9.55;;;4.85;;
9716;SDS011;4897;43.570;27.832;2023-04-24T03:56:36;6.35;;;5.07;;
9716;SDS011;4897;43.570;27.832;2023-04-24T03:59:02;11.02;;;4.95;;
9716;SDS011;4897;43.570;27.832;2023-04-24T04:01:30;11.65;;;4.63;;
9716;SDS011;4897;43.570;27.832;2023-04-24T04:04:02;13.93;;;5.60;;
9716;SDS011;4897;43.570;27.832;2023-04-24T04:06:29;10.93;;;5.32;;
9716;SDS011;4897;43.570;27.832;2023-04-24T04:08:56;30.45;;;5.43;;
9716;SDS011;4897;43.570;27.832;2023-04-24T04:11:22;11.02;;;4.80;;
9716;SDS011;4897;43.570;27.832;2023-04-24T04:13:50;10.70;;;4.85;;
9716;SDS011;4897;43.570;27.832;2023-04-24T04:16:17;10.93;;;5.07;;
9716;SDS011;4897;43.570;27.832;2023-04-24T04:18:45;12.32;;;5.07;;
9716;SDS011;4897;43.570;27.832;2023-04-24T04:21:12;11.13;;;5.60;;
9716;SDS011;4897;43.570;27.832;2023-04-24T04:23:38;8.75;;;4.88;;
9716;SDS011;4897;43.570;27.832;2023-04-24T04:26:08;13.68;;;5.60;;
9716;SDS011;4897;43.570;27.832;2023-04-24T04:28:35;11.77;;;5.15;;
9716;SDS011;4897;43.570;27.832;2023-04-24T04:31:04;11.10;;;4.95;;
9716;SDS011;4897;43.570;27.832;2023-04-24T04:33:32;14.05;;;5.25;;
9716;SDS011;4897;43.570;27.832;2023-04-24T04:36:01;10.15;;;4.80;;
9716;SDS011;4897;43.570;27.832;2023-04-24T04:38:30;10.40;;;4.78;;
9716;SDS011;4897;43.570;27.832;2023-04-24T04:40:57;11.48;;;4.65;;
9716;SDS011;4897;43.570;27.832;2023-04-24T04:43:24;12.27;;;3.95;;
9716;SDS011;4897;43.570;27.832;2023-04-24T04:45:51;15.40;;;4.35;;
9716;SDS011;4897;43.570;27.832;2023-04-24T04:48:21;8.77;;;4.07;;
9716;SDS011;4897;43.570;27.832;2023-04-24T04:50:48;16.65;;;4.55;;
9716;SDS011;4897;43.570;27.832;2023-04-24T04:53:14;12.18;;;5.53;;
9716;SDS011;4897;43.570;27.832;2023-04-24T04:55:41;8.65;;;4.78;;
9716;SDS011;4897;43.570;27.832;2023-04-24T04:58:08;16.75;;;4.97;;
9716;SDS011;4897;43.570;27.832;2023-04-24T05:00:34;13.70;;;4.40;;
9716;SDS011;4897;43.570;27.832;2023-04-24T05:03:02;6.75;;;4.00;;
9716;SDS011;4897;43.570;27.832;2023-04-24T05:05:33;6.32;;;3.55;;
9716;SDS011;4897;43.570;27.832;2023-04-24T05:07:59;15.23;;;4.93;;
9716;SDS011;4897;43.570;27.832;2023-04-24T05:10:26;12.45;;;3.75;;
9716;SDS011;4897;43.570;27.832;2023-04-24T05:12:52;13.25;;;4.00;;
9716;SDS011;4897;43.570;27.832;2023-04-24T05:15:19;12.27;;;3.55;;
9716;SDS011;4897;43.570;27.832;2023-04-24T05:17:46;12.57;;;3.90;;
9716;SDS011;4897;43.570;27.832;2023-04-24T05:20:12;10.60;;;3.50;;
9716;SDS011;4897;43.570;27.832;2023-04-24T05:22:41;13.30;;;3.53;;
9716;SDS011;4897;43.570;27.832;2023-04-24T05:25:08;6.88;;;3.53;;
9716;SDS011;4897;43.570;27.832;2023-04-24T05:27:35;6.72;;;3.35;;
9716;SDS011;4897;43.570;27.832;2023-04-24T05:30:01;4.43;;;3.05;;
9716;SDS011;4897;43.570;27.832;2023-04-24T05:32:28;15.52;;;3.47;;
9716;SDS011;4897;43.570;27.832;2023-04-24T05:34:55;9.57;;;2.97;;
9716;SDS011;4897;43.570;27.832;2023-04-24T05:37:21;8.27;;;3.20;;
9716;SDS011;4897;43.570;27.832;2023-04-24T05:39:49;6.65;;;3.13;;
9716;SDS011;4897;43.570;27.832;2023-04-24T05:42:16;4.57;;;3.05;;
9716;SDS011;4897;43.570;27.832;2023-04-24T05:44:43;6.38;;;3.15;;
9716;SDS011;4897;43.570;27.832;2023-04-24T05:47:09;6.70;;;3.08;;
9716;SDS011;4897;43.570;27.832;2023-04-24T05:49:36;15.18;;;3.47;;
9716;SDS011;4897;43.570;27.832;2023-04-24T05:52:03;8.82;;;3.17;;
9716;SDS011;4897;43.570;27.832;2023-04-24T05:54:31;9.48;;;3.53;;
9716;SDS011;4897;43.570;27.832;2023-04-24T05:56:59;8.73;;;3.22;;
9716;SDS011;4897;43.570;27.832;2023-04-24T05:59:29;11.27;;;3.15;;
9716;SDS011;4897;43.570;27.832;2023-04-24T06:01:56;8.52;;;3.30;;
9716;SDS011;4897;43.570;27.832;2023-04-24T06:04:22;8.18;;;3.00;;
9716;SDS011;4897;43.570;27.832;2023-04-24T06:06:49;7.30;;;3.20;;
9716;SDS011;4897;43.570;27.832;2023-04-24T06:09:20;6.60;;;3.10;;
9716;SDS011;4897;43.570;27.832;2023-04-24T06:11:47;8.50;;;3.10;;
9716;SDS011;4897;43.570;27.832;2023-04-24T06:14:15;9.63;;;3.72;;
9716;SDS011;4897;43.570;27.832;2023-04-24T06:16:42;7.03;;;3.30;;
9716;SDS011;4897;43.570;27.832;2023-04-24T06:19:08;5.65;;;3.10;;
9716;SDS011;4897;43.570;27.832;2023-04-24T06:21:35;9.43;;;3.10;;
9716;SDS011;4897;43.570;27.832;2023-04-24T06:24:02;7.45;;;3.30;;
9716;SDS011;4897;43.570;27.832;2023-04-24T06:26:29;8.93;;;3.10;;
9716;SDS011;4897;43.570;27.832;2023-04-24T06:28:58;11.73;;;3.17;;
9716;SDS011;4897;43.570;27.832;2023-04-24T06:31:26;12.57;;;3.22;;
9716;SDS011;4897;43.570;27.832;2023-04-24T06:33:53;6.40;;;2.78;;
9716;SDS011;4897;43.570;27.832;2023-04-24T06:36:20;8.63;;;2.60;;
9716;SDS011;4897;43.570;27.832;2023-04-24T06:38:46;7.85;;;3.08;;
9716;SDS011;4897;43.570;27.832;2023-04-24T06:41:13;7.35;;;2.90;;
9716;SDS011;4897;43.570;27.832;2023-04-24T06:43:39;5.47;;;2.70;;
9716;SDS011;4897;43.570;27.832;2023-04-24T06:46:09;4.95;;;2.58;;
9716;SDS011;4897;43.570;27.832;2023-04-24T06:48:38;7.20;;;2.75;;
9716;SDS011;4897;43.570;27.832;2023-04-24T06:51:05;6.95;;;2.85;;
9716;SDS011;4897;43.570;27.832;2023-04-24T06:53:32;5.78;;;2.90;;
9716;SDS011;4897;43.570;27.832;2023-04-24T06:55:58;5.43;;;2.85;;
9716;SDS011;4897;43.570;27.832;2023-04-24T06:58:25;6.85;;;2.63;;
9716;SDS011;4897;43.570;27.832;2023-04-24T07:00:52;4.97;;;2.80;;
9716;SDS011;4897;43.570;27.832;2023-04-24T07:03:19;5.28;;;2.90;;
9716;SDS011;4897;43.570;27.832;2023-04-24T07:05:47;8.63;;;3.10;;
9716;SDS011;4897;43.570;27.832;2023-04-24T07:08:14;10.73;;;3.03;;
9716;SDS011;4897;43.570;27.832;2023-04-24T07:10:42;4.40;;;3.22;;
9716;SDS011;4897;43.570;27.832;2023-04-24T07:13:08;6.78;;;2.97;;
9716;SDS011;4897;43.570;27.832;2023-04-24T07:15:35;5.70;;;2.92;;
9716;SDS011;4897;43.570;27.832;2023-04-24T07:18:02;4.13;;;2.72;;
9716;SDS011;4897;43.570;27.832;2023-04-24T07:20:29;6.20;;;3.08;;
9716;SDS011;4897;43.570;27.832;2023-04-24T07:23:01;7.78;;;2.95;;
9716;SDS011;4897;43.570;27.832;2023-04-24T07:25:27;9.68;;;2.88;;
9716;SDS011;4897;43.570;27.832;2023-04-24T07:27:55;7.18;;;3.60;;
9716;SDS011;4897;43.570;27.832;2023-04-24T07:30:22;13.85;;;7.32;;
9716;SDS011;4897;43.570;27.832;2023-04-24T07:32:50;7.55;;;3.15;;
9716;SDS011;4897;43.570;27.832;2023-04-24T07:35:17;12.27;;;5.75;;
9716;SDS011;4897;43.570;27.832;2023-04-24T07:37:47;8.02;;;4.93;;
9716;SDS011;4897;43.570;27.832;2023-04-24T07:40:15;6.25;;;3.22;;
9716;SDS011;4897;43.570;27.832;2023-04-24T07:42:42;6.97;;;3.45;;
9716;SDS011;4897;43.570;27.832;2023-04-24T07:45:09;5.43;;;2.92;;
9716;SDS011;4897;43.570;27.832;2023-04-24T07:47:35;5.03;;;3.22;;
9716;SDS011;4897;43.570;27.832;2023-04-24T07:50:03;7.75;;;3.67;;
9716;SDS011;4897;43.570;27.832;2023-04-24T07:52:32;7.63;;;3.13;;
9716;SDS011;4897;43.570;27.832;2023-04-24T07:54:59;5.43;;;3.55;;
9716;SDS011;4897;43.570;27.832;2023-04-24T07:57:28;5.82;;;3.63;;
9716;SDS011;4897;43.570;27.832;2023-04-24T07:59:55;7.32;;;4.10;;
9716;SDS011;4897;43.570;27.832;2023-04-24T08:02:21;7.97;;;3.78;;
9716;SDS011;4897;43.570;27.832;2023-04-24T08:04:51;7.70;;;3.33;;
9716;SDS011;4897;43.570;27.832;2023-04-24T08:07:18;14.88;;;3.63;;
9716;SDS011;4897;43.570;27.832;2023-04-24T08:09:44;6.97;;;3.72;;
9716;SDS011;4897;43.570;27.832;2023-04-24T08:12:11;5.60;;;3.38;;
9716;SDS011;4897;43.570;27.832;2023-04-24T08:14:39;4.45;;;3.38;;
9716;SDS011;4897;43.570;27.832;2023-04-24T08:17:06;5.90;;;3.17;;
9716;SDS011;4897;43.570;27.832;2023-04-24T08:19:33;5.85;;;3.63;;
9716;SDS011;4897;43.570;27.832;2023-04-24T08:22:00;10.38;;;3.80;;
9716;SDS011;4897;43.570;27.832;2023-04-24T08:24:27;7.88;;;3.75;;
9716;SDS011;4897;43.570;27.832;2023-04-24T08:26:54;5.70;;;3.30;;
9716;SDS011;4897;43.570;27.832;2023-04-24T08:29:23;5.55;;;2.90;;
9716;SDS011;4897;43.570;27.832;2023-04-24T08:31:51;4.88;;;3.17;;
9716;SDS011;4897;43.570;27.832;2023-04-24T08:34:19;5.50;;;3.92;;
9716;SDS011;4897;43.570;27.832;2023-04-24T08:36:46;5.13;;;3.78;;
9716;SDS011;4897;43.570;27.832;2023-04-24T08:39:16;7.53;;;4.03;;
9716;SDS011;4897;43.570;27.832;2023-04-24T08:41:44;11.18;;;3.58;;
9716;SDS011;4897;43.570;27.832;2023-04-24T08:44:14;4.95;;;3.30;;
9716;SDS011;4897;43.570;27.832;2023-04-24T08:46:41;5.75;;;3.47;;
9716;SDS011;4897;43.570;27.832;2023-04-24T08:49:10;9.32;;;4.25;;
9716;SDS011;4897;43.570;27.832;2023-04-24T08:51:37;10.57;;;4.00;;
9716;SDS011;4897;43.570;27.832;2023-04-24T08:54:07;9.00;;;3.30;;
9716;SDS011;4897;43.570;27.832;2023-04-24T08:56:34;13.93;;;7.72;;
9716;SDS011;4897;43.570;27.832;2023-04-24T08:59:03;9.85;;;3.17;;
9716;SDS011;4897;43.570;27.832;2023-04-24T09:01:30;8.30;;;3.33;;
9716;SDS011;4897;43.570;27.832;2023-04-24T09:03:58;9.48;;;2.97;;
9716;SDS011;4897;43.570;27.832;2023-04-24T09:06:27;6.57;;;3.15;;
9716;SDS011;4897;43.570;27.832;2023-04-24T09:08:55;10.30;;;7.10;;
9716;SDS011;4897;43.570;27.832;2023-04-24T09:11:22;9.40;;;4.15;;
9716;SDS011;4897;43.570;27.832;2023-04-24T09:13:50;9.20;;;2.88;;
9716;SDS011;4897;43.570;27.832;2023-04-24T09:16:17;4.78;;;3.00;;
9716;SDS011;4897;43.570;27.832;2023-04-24T09:18:44;7.32;;;4.43;;
9716;SDS011;4897;43.570;27.832;2023-04-24T09:21:11;8.10;;;2.78;;
9716;SDS011;4897;43.570;27.832;2023-04-24T09:23:39;4.72;;;3.08;;
9716;SDS011;4897;43.570;27.832;2023-04-24T09:26:06;8.73;;;3.10;;
9716;SDS011;4897;43.570;27.832;2023-04-24T09:28:36;6.47;;;3.50;;
9716;SDS011;4897;43.570;27.832;2023-04-24T09:31:04;4.65;;;3.00;;
9716;SDS011;4897;43.570;27.832;2023-04-24T09:33:31;7.57;;;3.83;;
9716;SDS011;4897;43.570;27.832;2023-04-24T09:35:57;3.88;;;2.85;;
9716;SDS011;4897;43.570;27.832;2023-04-24T09:38:36;5.35;;;2.78;;
9716;SDS011;4897;43.570;27.832;2023-04-24T09:41:06;5.35;;;2.88;;
9716;SDS011;4897;43.570;27.832;2023-04-24T09:43:38;5.68;;;2.70;;
9716;SDS011;4897;43.570;27.832;2023-04-24T09:46:06;4.30;;;2.83;;
9716;SDS011;4897;43.570;27.832;2023-04-24T09:48:35;6.38;;;3.10;;
9716;SDS011;4897;43.570;27.832;2023-04-24T09:51:02;11.90;;;4.32;;
9716;SDS011;4897;43.570;27.832;2023-04-24T09:53:30;6.13;;;2.97;;
9716;SDS011;4897;43.570;27.832;2023-04-24T09:56:01;17.13;;;8.45;;
9716;SDS011;4897;43.570;27.832;2023-04-24T09:58:29;4.45;;;3.05;;
9716;SDS011;4897;43.570;27.832;2023-04-24T10:00:56;7.45;;;3.72;;
9716;SDS011;4897;43.570;27.832;2023-04-24T10:03:24;12.10;;;3.10;;
9716;SDS011;4897;43.570;27.832;2023-04-24T10:05:51;14.82;;;8.88;;
9716;SDS011;4897;43.570;27.832;2023-04-24T10:08:18;4.10;;;3.05;;
9716;SDS011;4897;43.570;27.832;2023-04-24T10:10:45;10.43;;;3.90;;
9716;SDS011;4897;43.570;27.832;2023-04-24T10:13:13;9.68;;;3.05;;
9716;SDS011;4897;43.570;27.832;2023-04-24T10:15:42;7.03;;;3.17;;
9716;SDS011;4897;43.570;27.832;2023-04-24T10:18:09;4.78;;;2.90;;
9716;SDS011;4897;43.570;27.832;2023-04-24T10:20:40;7.15;;;3.00;;
9716;SDS011;4897;43.570;27.832;2023-04-24T10:23:07;6.38;;;3.03;;
9716;SDS011;4897;43.570;27.832;2023-04-24T10:25:34;8.82;;;4.25;;
9716;SDS011;4897;43.570;27.832;2023-04-24T10:28:02;5.50;;;3.05;;
9716;SDS011;4897;43.570;27.832;2023-04-24T10:30:30;11.90;;;3.05;;
9716;SDS011;4897;43.570;27.832;2023-04-24T10:33:03;8.73;;;3.25;;
9716;SDS011;4897;43.570;27.832;2023-04-24T10:35:39;5.28;;;2.83;;
9716;SDS011;4897;43.570;27.832;2023-04-24T10:38:11;9.60;;;3.35;;
9716;SDS011;4897;43.570;27.832;2023-04-24T10:40:38;6.63;;;2.88;;
9716;SDS011;4897;43.570;27.832;2023-04-24T10:43:08;11.77;;;3.08;;
9716;SDS011;4897;43.570;27.832;2023-04-24T10:45:36;10.10;;;3.35;;
9716;SDS011;4897;43.570;27.832;2023-04-24T10:48:05;11.35;;;7.63;;
9716;SDS011;4897;43.570;27.832;2023-04-24T10:50:42;7.35;;;2.60;;
9716;SDS011;4897;43.570;27.832;2023-04-24T10:53:12;5.35;;;2.72;;
9716;SDS011;4897;43.570;27.832;2023-04-24T10:55:39;3.85;;;2.65;;
9716;SDS011;4897;43.570;27.832;2023-04-24T10:58:07;8.85;;;3.30;;
9716;SDS011;4897;43.570;27.832;2023-04-24T11:00:39;6.75;;;3.35;;
9716;SDS011;4897;43.570;27.832;2023-04-24T11:03:22;16.50;;;4.35;;
9716;SDS011;4897;43.570;27.832;2023-04-24T11:05:51;14.50;;;3.35;;
9716;SDS011;4897;43.570;27.832;2023-04-24T11:08:24;5.68;;;3.10;;
9716;SDS011;4897;43.570;27.832;2023-04-24T11:10:56;16.60;;;3.72;;
9716;SDS011;4897;43.570;27.832;2023-04-24T11:13:24;25.55;;;4.00;;
9716;SDS011;4897;43.570;27.832;2023-04-24T11:18:41;6.70;;;2.60;;
9716;SDS011;4897;43.570;27.832;2023-04-24T11:21:10;4.88;;;2.70;;
9716;SDS011;4897;43.570;27.832;2023-04-24T11:23:37;9.85;;;2.70;;
9716;SDS011;4897;43.570;27.832;2023-04-24T11:26:10;7.22;;;2.92;;
9716;SDS011;4897;43.570;27.832;2023-04-24T11:28:37;8.27;;;2.70;;
9716;SDS011;4897;43.570;27.832;2023-04-24T11:33:56;3.20;;;2.28;;
9716;SDS011;4897;43.570;27.832;2023-04-24T11:36:23;6.10;;;2.55;;
9716;SDS011;4897;43.570;27.832;2023-04-24T11:38:50;4.35;;;2.88;;
9716;SDS011;4897;43.570;27.832;2023-04-24T11:41:16;12.45;;;2.92;;
9716;SDS011;4897;43.570;27.832;2023-04-24T11:43:45;5.25;;;2.38;;
9716;SDS011;4897;43.570;27.832;2023-04-24T11:46:16;8.43;;;2.67;;
9716;SDS011;4897;43.570;27.832;2023-04-24T11:48:44;6.03;;;2.70;;
9716;SDS011;4897;43.570;27.832;2023-04-24T11:51:13;6.65;;;2.63;;
9716;SDS011;4897;43.570;27.832;2023-04-24T11:53:39;7.75;;;2.65;;
9716;SDS011;4897;43.570;27.832;2023-04-24T11:56:06;9.13;;;2.97;;
9716;SDS011;4897;43.570;27.832;2023-04-24T11:58:35;7.43;;;2.78;;
9716;SDS011;4897;43.570;27.832;2023-04-24T12:01:01;6.60;;;2.70;;
9716;SDS011;4897;43.570;27.832;2023-04-24T12:03:30;3.10;;;2.17;;
9716;SDS011;4897;43.570;27.832;2023-04-24T12:06:07;4.93;;;2.28;;
9716;SDS011;4897;43.570;27.832;2023-04-24T12:08:35;3.92;;;2.17;;
9716;SDS011;4897;43.570;27.832;2023-04-24T12:11:03;4.05;;;2.58;;
9716;SDS011;4897;43.570;27.832;2023-04-24T12:13:30;12.05;;;2.28;;
9716;SDS011;4897;43.570;27.832;2023-04-24T12:15:57;4.40;;;2.67;;
9716;SDS011;4897;43.570;27.832;2023-04-24T12:18:24;9.95;;;3.00;;
9716;SDS011;4897;43.570;27.832;2023-04-24T12:20:53;4.30;;;2.30;;
9716;SDS011;4897;43.570;27.832;2023-04-24T12:23:37;8.98;;;2.30;;
9716;SDS011;4897;43.570;27.832;2023-04-24T12:26:06;5.50;;;2.55;;
9716;SDS011;4897;43.570;27.832;2023-04-24T12:28:36;6.32;;;2.47;;
9716;SDS011;4897;43.570;27.832;2023-04-24T12:31:03;4.22;;;2.40;;
9716;SDS011;4897;43.570;27.832;2023-04-24T12:33:32;10.73;;;2.58;;
9716;SDS011;4897;43.570;27.832;2023-04-24T12:35:59;5.35;;;2.83;;
9716;SDS011;4897;43.570;27.832;2023-04-24T12:38:29;4.65;;;2.42;;
9716;SDS011;4897;43.570;27.832;2023-04-24T12:41:03;9.48;;;2.55;;
9716;SDS011;4897;43.570;27.832;2023-04-24T12:43:30;4.57;;;2.58;;
9716;SDS011;4897;43.570;27.832;2023-04-24T12:45:57;7.43;;;2.63;;
9716;SDS011;4897;43.570;27.832;2023-04-24T12:48:24;5.45;;;2.38;;
9716;SDS011;4897;43.570;27.832;2023-04-24T12:50:51;5.28;;;2.30;;
9716;SDS011;4897;43.570;27.832;2023-04-24T12:53:17;3.83;;;2.30;;
9716;SDS011;4897;43.570;27.832;2023-04-24T12:55:44;4.97;;;2.45;;
9716;SDS011;4897;43.570;27.832;2023-04-24T12:58:13;3.33;;;2.13;;
9716;SDS011;4897;43.570;27.832;2023-04-24T13:00:40;4.47;;;2.10;;
9716;SDS011;4897;43.570;27.832;2023-04-24T13:03:08;5.85;;;2.25;;
9716;SDS011;4897;43.570;27.832;2023-04-24T13:05:35;4.97;;;2.85;;
9716;SDS011;4897;43.570;27.832;2023-04-24T13:08:01;6.38;;;2.55;;
9716;SDS011;4897;43.570;27.832;2023-04-24T13:10:28;4.72;;;2.13;;
9716;SDS011;4897;43.570;27.832;2023-04-24T13:12:59;5.60;;;2.47;;
9716;SDS011;4897;43.570;27.832;2023-04-24T13:15:27;5.90;;;2.92;;
9716;SDS011;4897;43.570;27.832;2023-04-24T13:17:54;8.60;;;2.63;;
9716;SDS011;4897;43.570;27.832;2023-04-24T13:20:20;5.03;;;2.20;;
9716;SDS011;4897;43.570;27.832;2023-04-24T13:22:47;10.88;;;6.35;;
9716;SDS011;4897;43.570;27.832;2023-04-24T13:25:14;10.80;;;7.97;;
9716;SDS011;4897;43.570;27.832;2023-04-24T13:27:42;9.23;;;4.43;;
9716;SDS011;4897;43.570;27.832;2023-04-24T13:30:09;5.82;;;3.22;;
9716;SDS011;4897;43.570;27.832;2023-04-24T13:32:37;13.27;;;3.90;;
9716;SDS011;4897;43.570;27.832;2023-04-24T13:35:07;4.07;;;2.55;;
9716;SDS011;4897;43.570;27.832;2023-04-24T13:37:34;7.10;;;4.00;;
9716;SDS011;4897;43.570;27.832;2023-04-24T13:40:01;5.88;;;2.92;;
9716;SDS011;4897;43.570;27.832;2023-04-24T13:42:31;5.72;;;2.88;;
9716;SDS011;4897;43.570;27.832;2023-04-24T13:44:57;5.05;;;2.88;;
9716;SDS011;4897;43.570;27.832;2023-04-24T13:47:24;5.60;;;2.33;;
9716;SDS011;4897;43.570;27.832;2023-04-24T13:49:52;5.03;;;2.40;;
9716;SDS011;4897;43.570;27.832;2023-04-24T13:52:19;8.57;;;5.15;;
9716;SDS011;4897;43.570;27.832;2023-04-24T13:54:46;5.60;;;3.92;;
9716;SDS011;4897;43.570;27.832;2023-04-24T13:57:13;5.47;;;3.95;;
9716;SDS011;4897;43.570;27.832;2023-04-24T13:59:40;8.65;;;5.68;;
9716;SDS011;4897;43.570;27.832;2023-04-24T14:02:07;4.57;;;2.78;;
9716;SDS011;4897;43.570;27.832;2023-04-24T14:04:34;4.15;;;2.75;;
9716;SDS011;4897;43.570;27.832;2023-04-24T14:07:02;6.95;;;3.08;;
9716;SDS011;4897;43.570;27.832;2023-04-24T14:09:30;5.70;;;2.72;;
9716;SDS011;4897;43.570;27.832;2023-04-24T14:11:57;4.57;;;2.70;;
9716;SDS011;4897;43.570;27.832;2023-04-24T14:14:24;7.22;;;2.60;;
9716;SDS011;4897;43.570;27.832;2023-04-24T14:16:50;5.43;;;2.50;;
9716;SDS011;4897;43.570;27.832;2023-04-24T14:19:17;6.20;;;2.80;;
9716;SDS011;4897;43.570;27.832;2023-04-24T14:21:44;7.90;;;2.97;;
9716;SDS011;4897;43.570;27.832;2023-04-24T14:24:12;8.02;;;2.90;;
9716;SDS011;4897;43.570;27.832;2023-04-24T14:26:38;6.68;;;2.92;;
9716;SDS011;4897;43.570;27.832;2023-04-24T14:29:05;5.57;;;3.00;;
9716;SDS011;4897;43.570;27.832;2023-04-24T14:31:32;9.20;;;3.10;;
9716;SDS011;4897;43.570;27.832;2023-04-24T14:33:58;7.32;;;3.20;;
9716;SDS011;4897;43.570;27.832;2023-04-24T14:36:25;6.20;;;2.90;;
9716;SDS011;4897;43.570;27.832;2023-04-24T14:38:52;8.73;;;2.90;;
9716;SDS011;4897;43.570;27.832;2023-04-24T14:41:20;5.65;;;2.67;;
9716;SDS011;4897;43.570;27.832;2023-04-24T14:43:46;4.63;;;2.90;;
9716;SDS011;4897;43.570;27.832;2023-04-24T14:46:13;5.03;;;2.72;;
9716;SDS011;4897;43.570;27.832;2023-04-24T14:48:39;7.30;;;2.50;;
9716;SDS011;4897;43.570;27.832;2023-04-24T14:51:06;8.50;;;2.70;;
9716;SDS011;4897;43.570;27.832;2023-04-24T14:53:33;11.27;;;2.65;;
9716;SDS011;4897;43.570;27.832;2023-04-24T14:56:00;6.13;;;2.65;;
9716;SDS011;4897;43.570;27.832;2023-04-24T14:58:28;6.88;;;2.95;;
9716;SDS011;4897;43.570;27.832;2023-04-24T15:00:58;6.22;;;3.00;;
9716;SDS011;4897;43.570;27.832;2023-04-24T15:03:24;4.88;;;2.40;;